createdAt,value
2022-12-20T00:00:12.730Z,7.72
2022-12-20T00:00:46.515Z,7.72
2022-12-20T00:01:18.924Z,7.72
2022-12-20T00:01:50.847Z,7.72
2022-12-20T00:02:22.149Z,7.61
2022-12-20T00:02:56.010Z,7.61
2022-12-20T00:03:27.027Z,7.61
2022-12-20T00:03:49.399Z,7.61
2022-12-20T00:04:11.845Z,7.61
2022-12-20T00:04:46.677Z,7.61
2022-12-20T00:05:18.528Z,7.61
2022-12-20T00:05:50.534Z,7.61
2022-12-20T00:06:22.292Z,7.61
2022-12-20T00:06:54.592Z,7.61
2022-12-20T00:07:26.541Z,7.61
2022-12-20T00:07:49.334Z,7.61
2022-12-20T00:08:11.755Z,7.61
2022-12-20T00:08:46.451Z,7.61
2022-12-20T00:09:18.489Z,7.61
2022-12-20T00:09:50.841Z,7.61
2022-12-20T00:10:22.017Z,7.61
2022-12-20T00:10:54.481Z,7.61
2022-12-20T00:11:26.612Z,7.61
2022-12-20T00:11:49.428Z,7.61
2022-12-20T00:12:12.145Z,7.61
2022-12-20T00:12:46.681Z,7.72
2022-12-20T00:13:18.752Z,7.72
2022-12-20T00:13:50.548Z,7.72
2022-12-20T00:14:22.046Z,7.72
2022-12-20T00:14:54.726Z,7.72
2022-12-20T00:15:27.018Z,7.72
2022-12-20T00:15:49.214Z,7.72
2022-12-20T00:16:11.592Z,7.72
2022-12-20T00:16:46.775Z,7.72
2022-12-20T00:17:18.535Z,7.72
2022-12-20T00:17:50.692Z,7.72
2022-12-20T00:18:22.027Z,7.72
2022-12-20T00:18:54.538Z,7.72
2022-12-20T00:19:26.634Z,7.72
2022-12-20T00:19:49.590Z,7.72
2022-12-20T00:20:11.407Z,7.72
2022-12-20T00:20:46.536Z,7.72
2022-12-20T00:21:18.512Z,7.72
2022-12-20T00:21:50.979Z,7.72
2022-12-20T00:22:22.009Z,7.72
2022-12-20T00:22:54.353Z,7.72
2022-12-20T00:23:26.534Z,7.72
2022-12-20T00:23:50.364Z,7.72
2022-12-20T00:24:12.816Z,7.72
2022-12-20T00:24:46.477Z,7.72
2022-12-20T00:25:19.021Z,7.77
2022-12-20T00:25:51.239Z,7.88
2022-12-20T00:26:22.089Z,7.88
2022-12-20T00:26:54.680Z,7.88
2022-12-20T00:27:26.635Z,7.88
2022-12-20T00:27:50.315Z,7.88
2022-12-20T00:28:12.762Z,7.77
2022-12-20T00:28:46.464Z,7.77
2022-12-20T00:29:18.370Z,7.77
2022-12-20T00:29:51.031Z,7.77
2022-12-20T00:30:22.110Z,7.88
2022-12-20T00:30:54.587Z,7.88
2022-12-20T00:31:26.477Z,7.88
2022-12-20T00:31:49.270Z,7.88
2022-12-20T00:32:11.701Z,7.88
2022-12-20T00:32:46.465Z,8.00
2022-12-20T00:33:18.629Z,8.00
2022-12-20T00:33:50.564Z,8.00
2022-12-20T00:34:22.078Z,8.00
2022-12-20T00:34:54.511Z,8.00
2022-12-20T00:35:26.511Z,8.00
2022-12-20T00:35:49.512Z,8.00
2022-12-20T00:36:11.777Z,8.00
2022-12-20T00:36:46.652Z,7.88
2022-12-20T00:37:18.486Z,7.88
2022-12-20T00:37:50.432Z,8.00
2022-12-20T00:38:21.901Z,8.00
2022-12-20T00:38:54.787Z,8.00
2022-12-20T00:39:26.529Z,8.00
2022-12-20T00:39:50.500Z,8.00
2022-12-20T00:40:12.955Z,8.11
2022-12-20T00:40:46.405Z,8.11
2022-12-20T00:41:18.444Z,8.00
2022-12-20T00:41:50.663Z,8.00
2022-12-20T00:42:21.983Z,8.00
2022-12-20T00:42:54.594Z,8.11
2022-12-20T00:43:27.087Z,8.00
2022-12-20T00:43:49.651Z,8.00
2022-12-20T00:44:12.115Z,8.00
2022-12-20T00:44:46.569Z,8.00
2022-12-20T00:45:18.455Z,8.00
2022-12-20T00:45:50.600Z,8.00
2022-12-20T00:46:22.020Z,8.00
2022-12-20T00:46:54.508Z,8.00
2022-12-20T00:47:26.664Z,8.00
2022-12-20T00:47:50.744Z,8.00
2022-12-20T00:48:13.013Z,8.00
2022-12-20T00:48:46.542Z,8.11
2022-12-20T00:49:18.467Z,8.00
2022-12-20T00:49:50.516Z,8.00
2022-12-20T00:50:22.258Z,8.00
2022-12-20T00:50:54.497Z,7.88
2022-12-20T00:51:26.668Z,8.00
2022-12-20T00:51:49.230Z,8.00
2022-12-20T00:52:11.688Z,8.00
2022-12-20T00:52:46.564Z,8.00
2022-12-20T00:53:24.433Z,8.00
2022-12-20T00:53:50.646Z,8.00
2022-12-20T00:54:22.083Z,8.11
2022-12-20T00:54:54.904Z,8.00
2022-12-20T00:55:26.397Z,8.00
2022-12-20T00:55:51.132Z,8.00
2022-12-20T00:56:13.538Z,8.11
2022-12-20T00:56:46.534Z,8.11
2022-12-20T00:57:18.574Z,8.22
2022-12-20T00:57:50.405Z,8.00
2022-12-20T00:58:21.888Z,8.22
2022-12-20T00:58:54.560Z,8.22
2022-12-20T00:59:27.973Z,8.11
2022-12-20T00:59:49.341Z,8.11
2022-12-20T01:00:11.828Z,8.11
2022-12-20T01:00:50.562Z,7.88
2022-12-20T01:01:18.801Z,8.22
2022-12-20T01:01:50.591Z,8.00
2022-12-20T01:02:22.257Z,8.00
2022-12-20T01:02:56.049Z,8.22
2022-12-20T01:03:26.716Z,8.22
2022-12-20T01:03:49.819Z,8.22
2022-12-20T01:04:12.066Z,8.22
2022-12-20T01:04:46.468Z,8.00
2022-12-20T01:05:18.870Z,8.00
2022-12-20T01:05:50.511Z,8.00
2022-12-20T01:06:22.129Z,8.11
2022-12-20T01:06:54.743Z,8.11
2022-12-20T01:07:26.587Z,8.11
2022-12-20T01:07:49.275Z,8.11
2022-12-20T01:08:11.691Z,8.11
2022-12-20T01:08:46.493Z,8.11
2022-12-20T01:09:18.577Z,8.11
2022-12-20T01:09:50.364Z,8.11
2022-12-20T01:10:21.966Z,8.27
2022-12-20T01:10:54.485Z,8.11
2022-12-20T01:11:26.673Z,8.11
2022-12-20T01:11:49.505Z,8.11
2022-12-20T01:12:11.879Z,8.11
2022-12-20T01:12:46.468Z,8.27
2022-12-20T01:13:18.721Z,8.22
2022-12-20T01:13:50.741Z,8.22
2022-12-20T01:14:22.118Z,8.22
2022-12-20T01:14:54.501Z,8.22
2022-12-20T01:15:26.641Z,8.22
2022-12-20T01:15:49.399Z,8.22
2022-12-20T01:16:11.876Z,8.22
2022-12-20T01:16:46.585Z,8.22
2022-12-20T01:17:19.850Z,8.22
2022-12-20T01:17:50.535Z,8.22
2022-12-20T01:18:22.388Z,8.11
2022-12-20T01:18:54.857Z,8.22
2022-12-20T01:19:26.463Z,8.22
2022-12-20T01:19:49.675Z,8.22
2022-12-20T01:20:11.938Z,8.22
2022-12-20T01:20:46.331Z,8.22
2022-12-20T01:21:18.414Z,8.22
2022-12-20T01:21:50.443Z,8.22
2022-12-20T01:22:21.900Z,8.22
2022-12-20T01:22:54.618Z,8.11
2022-12-20T01:23:26.343Z,8.11
2022-12-20T01:23:50.294Z,8.11
2022-12-20T01:24:12.099Z,8.11
2022-12-20T01:24:46.524Z,8.11
2022-12-20T01:25:18.756Z,8.11
2022-12-20T01:25:50.864Z,8.11
2022-12-20T01:26:21.962Z,8.11
2022-12-20T01:26:54.469Z,8.11
2022-12-20T01:27:26.976Z,8.11
2022-12-20T01:27:50.095Z,8.11
2022-12-20T01:28:12.638Z,8.11
2022-12-20T01:28:46.548Z,8.11
2022-12-20T01:29:18.855Z,8.11
2022-12-20T01:29:52.420Z,8.11
2022-12-20T01:30:22.085Z,8.11
2022-12-20T01:30:54.700Z,8.11
2022-12-20T01:31:26.565Z,8.11
2022-12-20T01:31:49.214Z,8.11
2022-12-20T01:32:11.548Z,8.11
2022-12-20T01:32:46.445Z,8.22
2022-12-20T01:33:18.305Z,8.00
2022-12-20T01:33:50.488Z,8.22
2022-12-20T01:34:21.899Z,8.00
2022-12-20T01:34:54.456Z,8.00
2022-12-20T01:35:26.354Z,8.22
2022-12-20T01:35:49.162Z,8.22
2022-12-20T01:36:11.447Z,8.00
2022-12-20T01:36:46.854Z,8.00
2022-12-20T01:37:18.425Z,8.00
2022-12-20T01:37:50.337Z,8.11
2022-12-20T01:38:23.424Z,8.00
2022-12-20T01:38:54.393Z,8.22
2022-12-20T01:39:26.358Z,8.00
2022-12-20T01:39:49.026Z,8.00
2022-12-20T01:40:30.370Z,8.11
2022-12-20T01:40:54.580Z,8.11
2022-12-20T01:41:15.568Z,8.22
2022-12-20T01:41:50.942Z,8.00
2022-12-20T01:42:22.163Z,8.00
2022-12-20T01:42:54.426Z,8.00
2022-12-20T01:43:27.010Z,8.00
2022-12-20T01:43:49.722Z,8.11
2022-12-20T01:44:12.682Z,8.11
2022-12-20T01:44:46.468Z,8.00
2022-12-20T01:45:18.620Z,8.00
2022-12-20T01:45:50.606Z,8.22
2022-12-20T01:46:22.336Z,8.00
2022-12-20T01:46:54.526Z,8.22
2022-12-20T01:47:26.677Z,8.00
2022-12-20T01:47:49.353Z,8.11
2022-12-20T01:48:11.686Z,8.11
2022-12-20T01:48:46.547Z,8.22
2022-12-20T01:49:18.639Z,8.22
2022-12-20T01:49:50.691Z,8.22
2022-12-20T01:50:22.193Z,8.22
2022-12-20T01:50:54.399Z,8.22
2022-12-20T01:51:26.344Z,8.22
2022-12-20T01:51:49.270Z,8.11
2022-12-20T01:52:11.421Z,8.11
2022-12-20T01:52:46.606Z,8.22
2022-12-20T01:53:18.387Z,8.22
2022-12-20T01:53:50.317Z,8.00
2022-12-20T01:54:21.915Z,8.11
2022-12-20T01:54:54.745Z,8.11
2022-12-20T01:55:26.308Z,8.11
2022-12-20T01:55:50.538Z,8.11
2022-12-20T01:56:12.600Z,8.11
2022-12-20T01:56:46.488Z,8.11
2022-12-20T01:57:18.724Z,8.11
2022-12-20T01:57:50.344Z,8.11
2022-12-20T01:58:22.037Z,8.11
2022-12-20T01:58:54.771Z,8.22
2022-12-20T01:59:26.988Z,8.22
2022-12-20T01:59:49.447Z,8.22
2022-12-20T02:00:12.055Z,8.22
2022-12-20T02:00:46.371Z,8.22
2022-12-20T02:01:18.768Z,8.22
2022-12-20T02:01:50.565Z,8.00
2022-12-20T02:02:22.340Z,8.22
2022-12-20T02:02:56.119Z,8.22
2022-12-20T02:03:26.650Z,8.11
2022-12-20T02:03:49.979Z,8.11
2022-12-20T02:04:12.204Z,8.11
2022-12-20T02:04:46.679Z,7.88
2022-12-20T02:05:18.395Z,8.22
2022-12-20T02:05:50.457Z,8.22
2022-12-20T02:06:21.972Z,8.00
2022-12-20T02:06:54.523Z,8.00
2022-12-20T02:07:26.289Z,8.22
2022-12-20T02:07:49.743Z,8.22
2022-12-20T02:08:12.313Z,7.88
2022-12-20T02:08:46.587Z,8.11
2022-12-20T02:09:18.576Z,8.11
2022-12-20T02:09:50.783Z,8.11
2022-12-20T02:10:22.056Z,8.11
2022-12-20T02:10:54.491Z,8.11
2022-12-20T02:11:26.329Z,8.11
2022-12-20T02:11:49.060Z,8.11
2022-12-20T02:12:11.630Z,8.11
2022-12-20T02:12:46.503Z,8.11
2022-12-20T02:13:18.583Z,8.00
2022-12-20T02:13:50.601Z,8.00
2022-12-20T02:14:21.996Z,8.00
2022-12-20T02:14:54.596Z,8.00
2022-12-20T02:15:26.421Z,8.00
2022-12-20T02:15:49.032Z,8.00
2022-12-20T02:16:11.711Z,8.00
2022-12-20T02:16:46.669Z,8.00
2022-12-20T02:17:18.499Z,8.00
2022-12-20T02:17:50.461Z,8.00
2022-12-20T02:18:22.344Z,8.00
2022-12-20T02:18:54.297Z,8.00
2022-12-20T02:19:26.651Z,8.00
2022-12-20T02:19:49.466Z,8.00
2022-12-20T02:20:11.806Z,8.00
2022-12-20T02:20:46.833Z,8.00
2022-12-20T02:21:18.510Z,8.00
2022-12-20T02:21:50.426Z,8.00
2022-12-20T02:22:21.990Z,8.00
2022-12-20T02:22:54.338Z,8.00
2022-12-20T02:23:26.532Z,8.00
2022-12-20T02:23:50.930Z,8.00
2022-12-20T02:24:13.469Z,8.00
2022-12-20T02:24:46.314Z,8.00
2022-12-20T02:25:18.312Z,8.00
2022-12-20T02:25:50.953Z,7.77
2022-12-20T02:26:21.985Z,8.11
2022-12-20T02:26:54.340Z,7.88
2022-12-20T02:27:26.704Z,7.88
2022-12-20T02:27:49.193Z,7.88
2022-12-20T02:28:11.628Z,8.11
2022-12-20T02:28:46.401Z,8.11
2022-12-20T02:29:18.484Z,8.00
2022-12-20T02:29:51.793Z,8.00
2022-12-20T02:30:22.262Z,7.77
2022-12-20T02:30:54.279Z,7.77
2022-12-20T02:31:26.387Z,8.00
2022-12-20T02:31:49.260Z,8.00
2022-12-20T02:32:11.555Z,8.00
2022-12-20T02:32:46.549Z,8.00
2022-12-20T02:33:18.783Z,7.88
2022-12-20T02:33:50.279Z,7.88
2022-12-20T02:34:22.456Z,7.88
2022-12-20T02:34:54.322Z,8.11
2022-12-20T02:35:26.347Z,8.11
2022-12-20T02:35:49.220Z,7.88
2022-12-20T02:36:11.536Z,7.88
2022-12-20T02:36:46.496Z,7.88
2022-12-20T02:37:18.383Z,7.88
2022-12-20T02:37:50.539Z,7.88
2022-12-20T02:38:22.033Z,7.88
2022-12-20T02:38:54.574Z,7.88
2022-12-20T02:39:26.298Z,8.11
2022-12-20T02:39:49.430Z,8.11
2022-12-20T02:40:11.780Z,8.11
2022-12-20T02:40:46.635Z,8.11
2022-12-20T02:41:18.888Z,8.11
2022-12-20T02:41:50.430Z,8.11
2022-12-20T02:42:22.207Z,8.11
2022-12-20T02:42:55.834Z,8.11
2022-12-20T02:43:26.661Z,8.11
2022-12-20T02:43:49.422Z,8.11
2022-12-20T02:44:11.779Z,7.88
2022-12-20T02:44:46.405Z,7.88
2022-12-20T02:45:18.493Z,7.88
2022-12-20T02:45:50.369Z,8.00
2022-12-20T02:46:22.277Z,8.00
2022-12-20T02:46:54.293Z,8.00
2022-12-20T02:47:26.377Z,8.11
2022-12-20T02:47:49.065Z,8.11
2022-12-20T02:48:11.498Z,8.11
2022-12-20T02:48:46.352Z,8.00
2022-12-20T02:49:18.435Z,8.22
2022-12-20T02:49:50.596Z,8.22
2022-12-20T02:50:22.062Z,8.00
2022-12-20T02:50:54.627Z,8.22
2022-12-20T02:51:26.596Z,8.22
2022-12-20T02:51:50.628Z,8.22
2022-12-20T02:52:12.744Z,8.11
2022-12-20T02:52:46.879Z,8.11
2022-12-20T02:53:18.567Z,8.11
2022-12-20T02:53:50.536Z,8.11
2022-12-20T02:54:21.949Z,8.00
2022-12-20T02:54:54.315Z,8.00
2022-12-20T02:55:26.602Z,7.88
2022-12-20T02:55:50.927Z,8.11
2022-12-20T02:56:12.774Z,8.11
2022-12-20T02:56:46.385Z,7.88
2022-12-20T02:57:18.306Z,7.88
2022-12-20T02:57:53.409Z,7.88
2022-12-20T02:58:21.933Z,7.88
2022-12-20T02:58:54.402Z,7.88
2022-12-20T02:59:27.729Z,7.77
2022-12-20T02:59:49.082Z,7.77
2022-12-20T03:00:16.239Z,7.88
2022-12-20T03:00:54.603Z,7.88
2022-12-20T03:01:13.462Z,8.11
2022-12-20T03:01:51.813Z,8.00
2022-12-20T03:02:22.832Z,8.00
2022-12-20T03:02:54.840Z,8.00
2022-12-20T03:03:29.733Z,8.11
2022-12-20T03:03:52.390Z,7.88
2022-12-20T03:04:31.087Z,7.88
2022-12-20T03:04:53.952Z,7.88
2022-12-20T03:05:17.235Z,7.88
2022-12-20T03:05:50.759Z,8.11
2022-12-20T03:06:22.976Z,8.11
2022-12-20T03:06:54.536Z,8.11
2022-12-20T03:07:26.686Z,8.11
2022-12-20T03:07:49.017Z,8.11
2022-12-20T03:08:11.939Z,8.00
2022-12-20T03:08:50.020Z,8.00
2022-12-20T03:09:18.589Z,8.00
2022-12-20T03:09:51.508Z,8.00
2022-12-20T03:10:22.148Z,8.00
2022-12-20T03:10:54.705Z,7.77
2022-12-20T03:11:26.643Z,7.88
2022-12-20T03:11:49.287Z,7.88
2022-12-20T03:12:11.873Z,7.88
2022-12-20T03:12:46.554Z,7.88
2022-12-20T03:13:19.022Z,7.88
2022-12-20T03:13:53.200Z,7.88
2022-12-20T03:14:22.590Z,7.88
2022-12-20T03:14:54.971Z,7.77
2022-12-20T03:15:27.069Z,7.77
2022-12-20T03:15:49.877Z,8.00
2022-12-20T03:16:12.861Z,8.00
2022-12-20T03:16:47.360Z,8.00
2022-12-20T03:17:18.863Z,8.00
2022-12-20T03:17:51.176Z,8.00
2022-12-20T03:18:25.004Z,8.00
2022-12-20T03:18:54.897Z,8.00
2022-12-20T03:19:26.547Z,7.88
2022-12-20T03:19:49.032Z,7.88
2022-12-20T03:20:11.981Z,7.88
2022-12-20T03:20:46.420Z,7.88
2022-12-20T03:21:18.502Z,7.88
2022-12-20T03:21:51.239Z,7.88
2022-12-20T03:22:22.902Z,7.88
2022-12-20T03:22:54.511Z,7.88
2022-12-20T03:23:26.611Z,7.77
2022-12-20T03:23:49.391Z,7.77
2022-12-20T03:24:11.837Z,7.77
2022-12-20T03:24:47.437Z,7.72
2022-12-20T03:25:18.342Z,7.72
2022-12-20T03:25:58.422Z,7.72
2022-12-20T03:26:20.650Z,7.72
2022-12-20T03:26:54.570Z,7.88
2022-12-20T03:27:26.687Z,7.88
2022-12-20T03:27:49.603Z,7.88
2022-12-20T03:28:12.572Z,7.88
2022-12-20T03:28:46.489Z,7.72
2022-12-20T03:29:18.354Z,7.72
2022-12-20T03:29:55.842Z,7.88
2022-12-20T03:30:22.912Z,7.72
2022-12-20T03:30:54.561Z,7.72
2022-12-20T03:31:27.176Z,7.72
2022-12-20T03:31:49.554Z,7.72
2022-12-20T03:32:11.994Z,7.72
2022-12-20T03:32:46.691Z,7.72
2022-12-20T03:33:18.529Z,7.72
2022-12-20T03:33:50.385Z,7.77
2022-12-20T03:34:22.144Z,7.77
2022-12-20T03:34:54.792Z,7.77
2022-12-20T03:35:27.085Z,7.77
2022-12-20T03:35:49.263Z,7.77
2022-12-20T03:36:12.687Z,7.77
2022-12-20T03:36:47.218Z,7.77
2022-12-20T03:37:19.077Z,7.77
2022-12-20T03:37:50.269Z,7.77
2022-12-20T03:38:22.570Z,7.88
2022-12-20T03:38:54.363Z,7.88
2022-12-20T03:39:28.194Z,7.88
2022-12-20T03:39:51.111Z,7.88
2022-12-20T03:40:14.547Z,7.88
2022-12-20T03:40:46.603Z,7.88
2022-12-20T03:41:18.610Z,7.88
2022-12-20T03:41:51.301Z,7.88
2022-12-20T03:42:22.417Z,7.88
2022-12-20T03:42:54.630Z,7.88
2022-12-20T03:43:26.703Z,7.88
2022-12-20T03:43:49.100Z,7.88
2022-12-20T03:44:13.439Z,7.88
2022-12-20T03:44:46.694Z,7.72
2022-12-20T03:45:19.464Z,7.88
2022-12-20T03:45:50.916Z,8.00
2022-12-20T03:46:23.346Z,8.00
2022-12-20T03:46:54.891Z,8.00
2022-12-20T03:47:27.063Z,7.77
2022-12-20T03:47:49.775Z,7.77
2022-12-20T03:48:12.175Z,7.77
2022-12-20T03:48:46.500Z,7.77
2022-12-20T03:49:18.352Z,7.77
2022-12-20T03:49:50.459Z,7.77
2022-12-20T03:50:22.695Z,8.00
2022-12-20T03:50:54.655Z,8.00
2022-12-20T03:51:26.468Z,7.88
2022-12-20T03:51:49.089Z,7.88
2022-12-20T03:52:11.776Z,7.88
2022-12-20T03:52:47.038Z,7.88
2022-12-20T03:53:18.883Z,7.88
2022-12-20T03:53:50.644Z,7.88
2022-12-20T03:54:23.094Z,7.77
2022-12-20T03:54:54.302Z,7.77
2022-12-20T03:55:26.494Z,7.72
2022-12-20T03:55:49.208Z,7.72
2022-12-20T03:56:11.620Z,7.72
2022-12-20T03:56:46.531Z,7.72
2022-12-20T03:57:18.475Z,7.72
2022-12-20T03:57:51.034Z,7.72
2022-12-20T03:58:23.713Z,7.88
2022-12-20T03:58:55.057Z,7.77
2022-12-20T03:59:26.477Z,7.72
2022-12-20T03:59:48.980Z,7.72
2022-12-20T04:00:30.901Z,7.72
2022-12-20T04:00:53.583Z,7.72
2022-12-20T04:01:16.542Z,7.72
2022-12-20T04:01:50.508Z,7.72
2022-12-20T04:02:23.224Z,7.61
2022-12-20T04:02:56.154Z,7.50
2022-12-20T04:03:27.111Z,7.72
2022-12-20T04:03:50.035Z,7.72
2022-12-20T04:04:12.318Z,7.61
2022-12-20T04:04:46.973Z,7.61
2022-12-20T04:05:19.374Z,7.61
2022-12-20T04:05:50.511Z,7.50
2022-12-20T04:06:22.324Z,7.50
2022-12-20T04:06:55.172Z,7.38
2022-12-20T04:07:26.724Z,7.38
2022-12-20T04:07:49.298Z,7.38
2022-12-20T04:08:11.844Z,7.38
2022-12-20T04:08:46.436Z,7.38
2022-12-20T04:09:20.083Z,7.38
2022-12-20T04:09:50.539Z,7.38
2022-12-20T04:10:22.166Z,7.38
2022-12-20T04:10:54.377Z,7.50
2022-12-20T04:11:26.591Z,7.50
2022-12-20T04:11:49.361Z,7.50
2022-12-20T04:12:11.753Z,7.50
2022-12-20T04:12:47.152Z,7.38
2022-12-20T04:13:18.567Z,7.50
2022-12-20T04:13:51.114Z,7.50
2022-12-20T04:14:23.104Z,7.61
2022-12-20T04:14:54.606Z,7.61
2022-12-20T04:15:26.771Z,7.50
2022-12-20T04:15:49.394Z,7.61
2022-12-20T04:16:12.381Z,7.61
2022-12-20T04:16:46.415Z,7.61
2022-12-20T04:17:18.746Z,7.61
2022-12-20T04:17:50.661Z,7.61
2022-12-20T04:18:24.335Z,7.61
2022-12-20T04:18:54.327Z,7.61
2022-12-20T04:19:26.662Z,7.72
2022-12-20T04:19:49.450Z,7.72
2022-12-20T04:20:11.898Z,7.72
2022-12-20T04:20:46.316Z,7.72
2022-12-20T04:21:18.311Z,7.72
2022-12-20T04:21:50.346Z,7.72
2022-12-20T04:22:21.919Z,7.77
2022-12-20T04:22:54.490Z,7.77
2022-12-20T04:23:26.377Z,7.77
2022-12-20T04:23:49.064Z,7.77
2022-12-20T04:24:11.603Z,7.77
2022-12-20T04:24:46.543Z,7.88
2022-12-20T04:25:18.592Z,7.88
2022-12-20T04:25:50.704Z,7.88
2022-12-20T04:26:22.107Z,7.88
2022-12-20T04:26:54.292Z,7.72
2022-12-20T04:27:26.905Z,7.77
2022-12-20T04:27:49.581Z,7.77
2022-12-20T04:28:11.844Z,7.77
2022-12-20T04:28:46.447Z,8.00
2022-12-20T04:29:18.408Z,8.00
2022-12-20T04:29:51.964Z,8.00
2022-12-20T04:30:22.596Z,7.88
2022-12-20T04:30:54.539Z,7.88
2022-12-20T04:31:26.393Z,7.88
2022-12-20T04:31:48.926Z,7.88
2022-12-20T04:32:11.459Z,7.88
2022-12-20T04:32:46.430Z,7.88
2022-12-20T04:33:18.428Z,8.00
2022-12-20T04:33:50.300Z,8.00
2022-12-20T04:34:22.110Z,8.00
2022-12-20T04:34:54.453Z,8.00
2022-12-20T04:35:26.728Z,8.00
2022-12-20T04:35:49.403Z,7.88
2022-12-20T04:36:12.251Z,7.88
2022-12-20T04:36:47.669Z,7.88
2022-12-20T04:37:18.571Z,8.00
2022-12-20T04:37:50.885Z,8.00
2022-12-20T04:38:22.262Z,8.00
2022-12-20T04:38:54.934Z,8.00
2022-12-20T04:39:27.341Z,8.00
2022-12-20T04:39:49.648Z,8.00
2022-12-20T04:40:12.719Z,7.88
2022-12-20T04:40:46.422Z,7.88
2022-12-20T04:41:19.359Z,7.88
2022-12-20T04:41:50.627Z,7.88
2022-12-20T04:42:24.107Z,7.88
2022-12-20T04:42:54.554Z,8.00
2022-12-20T04:43:26.581Z,8.00
2022-12-20T04:43:49.121Z,8.00
2022-12-20T04:44:11.592Z,8.00
2022-12-20T04:44:47.985Z,8.00
2022-12-20T04:45:18.509Z,8.00
2022-12-20T04:45:50.778Z,8.00
2022-12-20T04:46:22.217Z,8.00
2022-12-20T04:46:54.536Z,8.00
2022-12-20T04:47:26.435Z,7.88
2022-12-20T04:47:49.073Z,7.88
2022-12-20T04:48:45.962Z,7.88
2022-12-20T04:49:02.485Z,7.88
2022-12-20T04:49:34.271Z,7.88
2022-12-20T04:49:57.065Z,7.88
2022-12-20T04:50:19.818Z,7.88
2022-12-20T04:50:55.094Z,7.88
2022-12-20T04:51:26.855Z,7.88
2022-12-20T04:51:49.126Z,7.88
2022-12-20T04:52:11.664Z,7.88
2022-12-20T04:52:48.039Z,7.88
2022-12-20T04:53:18.345Z,7.77
2022-12-20T04:53:50.811Z,7.77
2022-12-20T04:54:22.561Z,7.77
2022-12-20T04:54:55.738Z,7.77
2022-12-20T04:55:27.260Z,7.88
2022-12-20T04:55:50.287Z,7.88
2022-12-20T04:56:13.079Z,7.77
2022-12-20T04:56:46.680Z,7.88
2022-12-20T04:57:18.978Z,7.77
2022-12-20T04:57:50.470Z,7.77
2022-12-20T04:58:22.149Z,7.88
2022-12-20T04:58:54.323Z,7.88
2022-12-20T04:59:26.659Z,7.88
2022-12-20T04:59:49.162Z,7.88
2022-12-20T05:00:12.519Z,7.88
2022-12-20T05:00:46.766Z,7.88
2022-12-20T05:01:18.687Z,7.88
2022-12-20T05:01:51.191Z,7.88
2022-12-20T05:02:22.486Z,7.88
2022-12-20T05:02:56.491Z,7.77
2022-12-20T05:03:26.530Z,7.77
2022-12-20T05:03:48.993Z,7.77
2022-12-20T05:04:11.906Z,7.77
2022-12-20T05:04:46.680Z,7.88
2022-12-20T05:05:18.356Z,7.88
2022-12-20T05:05:50.436Z,7.88
2022-12-20T05:06:22.157Z,7.88
2022-12-20T05:06:54.370Z,8.00
2022-12-20T05:07:27.516Z,7.77
2022-12-20T05:07:50.201Z,7.77
2022-12-20T05:08:12.879Z,7.77
2022-12-20T05:08:46.154Z,7.88
2022-12-20T05:09:18.350Z,7.77
2022-12-20T05:09:51.708Z,7.77
2022-12-20T05:10:22.094Z,7.77
2022-12-20T05:10:55.292Z,7.77
2022-12-20T05:11:26.335Z,7.77
2022-12-20T05:11:48.924Z,7.77
2022-12-20T05:12:11.582Z,7.77
2022-12-20T05:12:46.443Z,7.88
2022-12-20T05:13:18.768Z,7.88
2022-12-20T05:13:50.440Z,7.88
2022-12-20T05:14:22.169Z,7.88
2022-12-20T05:14:54.813Z,7.77
2022-12-20T05:15:27.009Z,7.77
2022-12-20T05:15:49.693Z,7.88
2022-12-20T05:16:12.124Z,7.77
2022-12-20T05:16:46.931Z,7.77
2022-12-20T05:17:18.591Z,7.88
2022-12-20T05:17:50.202Z,7.88
2022-12-20T05:18:24.790Z,7.88
2022-12-20T05:18:54.411Z,7.88
2022-12-20T05:19:26.980Z,7.88
2022-12-20T05:19:49.750Z,7.88
2022-12-20T05:20:12.731Z,7.88
2022-12-20T05:20:46.784Z,7.88
2022-12-20T05:21:18.988Z,7.88
2022-12-20T05:21:50.436Z,8.00
2022-12-20T05:22:22.191Z,8.00
2022-12-20T05:22:54.949Z,8.00
2022-12-20T05:23:26.329Z,8.11
2022-12-20T05:23:49.037Z,8.11
2022-12-20T05:24:11.356Z,8.11
2022-12-20T05:24:46.396Z,8.11
2022-12-20T05:25:18.330Z,8.11
2022-12-20T05:25:50.955Z,8.11
2022-12-20T05:26:22.827Z,8.11
2022-12-20T05:26:54.764Z,8.11
2022-12-20T05:27:26.780Z,8.11
2022-12-20T05:27:49.424Z,8.11
2022-12-20T05:28:12.401Z,8.11
2022-12-20T05:28:46.322Z,8.00
2022-12-20T05:29:18.359Z,8.00
2022-12-20T05:29:51.856Z,8.11
2022-12-20T05:30:22.593Z,8.00
2022-12-20T05:30:54.474Z,8.00
2022-12-20T05:31:26.457Z,8.00
2022-12-20T05:31:49.243Z,7.88
2022-12-20T05:32:11.583Z,8.00
2022-12-20T05:32:46.631Z,8.11
2022-12-20T05:33:18.326Z,8.00
2022-12-20T05:33:50.533Z,8.11
2022-12-20T05:34:21.991Z,8.11
2022-12-20T05:34:54.548Z,8.11
2022-12-20T05:35:26.534Z,8.22
2022-12-20T05:35:49.108Z,8.22
2022-12-20T05:36:11.562Z,8.11
2022-12-20T05:36:47.292Z,8.11
2022-12-20T05:37:18.551Z,8.11
2022-12-20T05:37:51.766Z,8.00
2022-12-20T05:38:28.182Z,8.00
2022-12-20T05:39:00.068Z,8.00
2022-12-20T05:39:26.835Z,8.00
2022-12-20T05:39:49.408Z,8.00
2022-12-20T05:40:11.710Z,8.00
2022-12-20T05:40:48.709Z,8.11
2022-12-20T05:41:18.475Z,8.11
2022-12-20T05:41:50.600Z,8.00
2022-12-20T05:42:22.440Z,8.22
2022-12-20T05:42:55.065Z,8.22
2022-12-20T05:43:26.531Z,8.22
2022-12-20T05:43:48.884Z,8.22
2022-12-20T05:44:12.806Z,8.22
2022-12-20T05:44:46.492Z,8.11
2022-12-20T05:45:18.637Z,8.22
2022-12-20T05:45:50.304Z,8.22
2022-12-20T05:46:22.190Z,8.22
2022-12-20T05:46:54.949Z,8.22
2022-12-20T05:47:26.438Z,8.22
2022-12-20T05:47:49.548Z,8.22
2022-12-20T05:48:11.452Z,8.22
2022-12-20T05:48:46.501Z,8.22
2022-12-20T05:49:18.881Z,8.22
2022-12-20T05:49:51.140Z,8.22
2022-12-20T05:50:23.604Z,8.22
2022-12-20T05:50:55.235Z,8.22
2022-12-20T05:51:26.541Z,8.22
2022-12-20T05:51:49.393Z,8.11
2022-12-20T05:52:12.403Z,8.22
2022-12-20T05:52:46.744Z,8.11
2022-12-20T05:53:19.026Z,8.22
2022-12-20T05:53:51.038Z,8.11
2022-12-20T05:54:22.926Z,8.22
2022-12-20T05:54:54.346Z,8.22
2022-12-20T05:55:26.352Z,8.11
2022-12-20T05:55:49.565Z,8.11
2022-12-20T05:56:11.700Z,8.22
2022-12-20T05:56:46.808Z,8.22
2022-12-20T05:57:18.779Z,8.22
2022-12-20T05:57:51.004Z,8.22
2022-12-20T05:58:22.806Z,8.22
2022-12-20T05:58:54.284Z,8.11
2022-12-20T05:59:26.842Z,8.11
2022-12-20T05:59:49.154Z,8.11
2022-12-20T06:00:13.009Z,8.11
2022-12-20T06:00:48.660Z,8.11
2022-12-20T06:01:18.691Z,8.11
2022-12-20T06:01:50.906Z,8.11
2022-12-20T06:02:22.466Z,8.11
2022-12-20T06:02:56.218Z,8.11
2022-12-20T06:03:27.072Z,8.11
2022-12-20T06:03:49.733Z,8.11
2022-12-20T06:04:12.281Z,8.11
2022-12-20T06:04:48.024Z,8.11
2022-12-20T06:05:18.426Z,8.11
2022-12-20T06:05:50.336Z,8.27
2022-12-20T06:06:22.125Z,8.11
2022-12-20T06:06:54.350Z,8.11
2022-12-20T06:07:26.848Z,8.11
2022-12-20T06:07:49.311Z,8.11
2022-12-20T06:08:13.297Z,8.11
2022-12-20T06:08:46.546Z,8.11
2022-12-20T06:09:18.278Z,8.27
2022-12-20T06:09:50.468Z,8.22
2022-12-20T06:10:22.377Z,8.22
2022-12-20T06:10:54.313Z,8.22
2022-12-20T06:11:30.147Z,8.22
2022-12-20T06:11:49.115Z,8.22
2022-12-20T06:12:11.824Z,8.22
2022-12-20T06:12:47.080Z,8.22
2022-12-20T06:13:19.793Z,8.22
2022-12-20T06:13:50.528Z,8.22
2022-12-20T06:14:22.082Z,8.22
2022-12-20T06:14:56.335Z,8.22
2022-12-20T06:15:26.407Z,8.22
2022-12-20T06:15:49.456Z,8.11
2022-12-20T06:16:12.532Z,8.11
2022-12-20T06:16:46.441Z,8.27
2022-12-20T06:17:18.809Z,8.11
2022-12-20T06:17:50.210Z,8.11
2022-12-20T06:18:22.269Z,8.11
2022-12-20T06:18:55.886Z,8.11
2022-12-20T06:19:27.391Z,8.11
2022-12-20T06:19:49.685Z,8.27
2022-12-20T06:20:12.062Z,8.27
2022-12-20T06:20:47.659Z,8.27
2022-12-20T06:21:18.401Z,8.27
2022-12-20T06:21:50.774Z,8.27
2022-12-20T06:22:24.792Z,8.27
2022-12-20T06:22:55.556Z,8.27
2022-12-20T06:23:26.764Z,8.27
2022-12-20T06:23:49.330Z,8.27
2022-12-20T06:24:11.979Z,8.27
2022-12-20T06:24:48.776Z,8.27
2022-12-20T06:25:19.561Z,8.27
2022-12-20T06:25:50.568Z,8.27
2022-12-20T06:26:22.462Z,8.27
2022-12-20T06:26:54.427Z,8.27
2022-12-20T06:27:26.486Z,8.27
2022-12-20T06:27:49.352Z,8.22
2022-12-20T06:28:12.218Z,8.22
2022-12-20T06:28:46.839Z,8.22
2022-12-20T06:29:18.330Z,8.22
2022-12-20T06:29:55.959Z,8.22
2022-12-20T06:30:22.645Z,8.22
2022-12-20T06:30:54.813Z,8.22
2022-12-20T06:31:26.556Z,8.22
2022-12-20T06:31:49.369Z,8.22
2022-12-20T06:32:12.093Z,8.22
2022-12-20T06:32:46.650Z,8.22
2022-12-20T06:33:18.449Z,8.22
2022-12-20T06:33:50.306Z,8.22
2022-12-20T06:34:22.149Z,8.11
2022-12-20T06:34:55.179Z,8.11
2022-12-20T06:35:26.311Z,8.11
2022-12-20T06:35:50.396Z,8.11
2022-12-20T06:36:11.565Z,8.22
2022-12-20T06:36:48.131Z,8.22
2022-12-20T06:37:18.406Z,8.00
2022-12-20T06:37:50.309Z,8.00
2022-12-20T06:38:22.418Z,8.00
2022-12-20T06:38:54.436Z,8.22
2022-12-20T06:39:26.357Z,8.22